Terminal Aerodrome Forecast
Issued by NWS

Home | Current Version | Previous Version | Text Only | Print | Product List | Glossary On
Versions: 1 2 3 4 5 6 7 8 9 10 11 12 13 14 15 16 17 18 19 20 21
019
FTUS44 KMAF 232334
TAFHOB
TAF
KHOB 232334Z 2400/2424 17027G37KT 6SM BLDU SCT250
     FM240100 21035G50KT 6SM BLDU SCT250
      TEMPO 2401/2405 2SM BLDU SCT002 BKN030
     FM240500 25015G25KT P6SM FEW250
     FM241500 26025G35KT P6SM FEW250=

USA.gov is the U.S. government's official web portal to all federal, state and local government web resources and services.